Vendinga, Russia
Current Conditions -  °F | °C
As of 3:00 PM on Thursday 29 Jan 2015 (Local Time) from UUYY Reporting Station
Blowing Snow Blowing Snow  
Wind Chill: -13°   Ceiling: 1400
Heat Index: -6°   Visibility: 6mi
Dew Point: -9°   Wind: 13mph
Humidity: 80%   Direction: 200°SSW
Pressure: 29.65"   Gusts: 25mph
Location:  63.45°N, 48°E
Report Text: UUYY 291200Z 20006G11MPS 9000 -SHSN -BLSN BKN014CB OVC066M06/M09 Q1004 NOSIG 1942//51 RMK QFE745/0993
Loading
Personal Weather Stations






























Interactive Weather Map New forecast layout! Learn more

10-Day Weather Forecast

Advertisements
Track Severe Weather on mobile